sensor_id;sensor_type;location;lat;lon;timestamp;P1;durP1;ratioP1;P2;durP2;ratioP2
45338;SDS011;31071;51.478;5.710;2023-04-10T00:00:31;14.05;;;9.45;;
45338;SDS011;31071;51.478;5.710;2023-04-10T00:02:57;13.35;;;9.60;;
45338;SDS011;31071;51.478;5.710;2023-04-10T00:05:25;12.52;;;9.07;;
45338;SDS011;31071;51.478;5.710;2023-04-10T00:07:51;13.95;;;9.70;;
45338;SDS011;31071;51.478;5.710;2023-04-10T00:10:17;12.80;;;9.00;;
45338;SDS011;31071;51.478;5.710;2023-04-10T00:12:43;13.70;;;10.05;;
45338;SDS011;31071;51.478;5.710;2023-04-10T00:15:09;13.75;;;9.48;;
45338;SDS011;31071;51.478;5.710;2023-04-10T00:17:35;13.68;;;9.77;;
45338;SDS011;31071;51.478;5.710;2023-04-10T00:20:00;14.63;;;9.32;;
45338;SDS011;31071;51.478;5.710;2023-04-10T00:22:26;12.20;;;9.23;;
45338;SDS011;31071;51.478;5.710;2023-04-10T00:24:51;13.07;;;9.10;;
45338;SDS011;31071;51.478;5.710;2023-04-10T00:27:17;12.45;;;9.25;;
45338;SDS011;31071;51.478;5.710;2023-04-10T00:29:43;14.40;;;9.70;;
45338;SDS011;31071;51.478;5.710;2023-04-10T00:32:08;13.30;;;9.40;;
45338;SDS011;31071;51.478;5.710;2023-04-10T00:34:34;13.40;;;9.23;;
45338;SDS011;31071;51.478;5.710;2023-04-10T00:36:59;13.13;;;9.68;;
45338;SDS011;31071;51.478;5.710;2023-04-10T00:39:25;14.50;;;9.48;;
45338;SDS011;31071;51.478;5.710;2023-04-10T00:41:51;13.50;;;9.75;;
45338;SDS011;31071;51.478;5.710;2023-04-10T00:44:16;13.95;;;9.38;;
45338;SDS011;31071;51.478;5.710;2023-04-10T00:46:42;13.95;;;9.18;;
45338;SDS011;31071;51.478;5.710;2023-04-10T00:49:07;14.27;;;10.45;;
45338;SDS011;31071;51.478;5.710;2023-04-10T00:51:33;15.18;;;9.80;;
45338;SDS011;31071;51.478;5.710;2023-04-10T00:54:00;16.10;;;10.20;;
45338;SDS011;31071;51.478;5.710;2023-04-10T00:56:27;14.48;;;10.02;;
45338;SDS011;31071;51.478;5.710;2023-04-10T00:58:55;16.02;;;10.45;;
45338;SDS011;31071;51.478;5.710;2023-04-10T01:01:21;16.67;;;11.13;;
45338;SDS011;31071;51.478;5.710;2023-04-10T01:03:47;15.30;;;10.15;;
45338;SDS011;31071;51.478;5.710;2023-04-10T01:06:34;14.63;;;9.98;;
45338;SDS011;31071;51.478;5.710;2023-04-10T01:09:14;16.10;;;11.00;;
45338;SDS011;31071;51.478;5.710;2023-04-10T01:11:56;14.18;;;9.77;;
45338;SDS011;31071;51.478;5.710;2023-04-10T01:17:00;15.63;;;10.55;;
45338;SDS011;31071;51.478;5.710;2023-04-10T01:22:32;15.48;;;10.30;;
45338;SDS011;31071;51.478;5.710;2023-04-10T01:29:07;12.55;;;9.20;;
45338;SDS011;31071;51.478;5.710;2023-04-10T01:31:06;13.30;;;10.02;;
45338;SDS011;31071;51.478;5.710;2023-04-10T01:33:39;14.82;;;10.10;;
45338;SDS011;31071;51.478;5.710;2023-04-10T01:36:10;14.95;;;10.43;;
45338;SDS011;31071;51.478;5.710;2023-04-10T01:38:41;13.40;;;9.88;;
45338;SDS011;31071;51.478;5.710;2023-04-10T01:41:08;15.25;;;10.48;;
45338;SDS011;31071;51.478;5.710;2023-04-10T01:43:33;15.30;;;10.45;;
45338;SDS011;31071;51.478;5.710;2023-04-10T01:46:01;15.07;;;10.45;;
45338;SDS011;31071;51.478;5.710;2023-04-10T01:48:27;17.38;;;10.93;;
45338;SDS011;31071;51.478;5.710;2023-04-10T01:50:54;20.13;;;10.05;;
45338;SDS011;31071;51.478;5.710;2023-04-10T01:53:20;14.23;;;9.82;;
45338;SDS011;31071;51.478;5.710;2023-04-10T01:55:46;16.00;;;10.80;;
45338;SDS011;31071;51.478;5.710;2023-04-10T01:58:12;13.75;;;10.35;;
45338;SDS011;31071;51.478;5.710;2023-04-10T02:00:39;15.32;;;10.93;;
45338;SDS011;31071;51.478;5.710;2023-04-10T02:03:06;15.38;;;10.35;;
45338;SDS011;31071;51.478;5.710;2023-04-10T02:05:36;17.08;;;10.85;;
45338;SDS011;31071;51.478;5.710;2023-04-10T02:08:06;15.23;;;10.43;;
45338;SDS011;31071;51.478;5.710;2023-04-10T02:10:44;14.70;;;10.50;;
45338;SDS011;31071;51.478;5.710;2023-04-10T02:13:16;16.25;;;10.20;;
45338;SDS011;31071;51.478;5.710;2023-04-10T02:15:45;16.25;;;10.85;;
45338;SDS011;31071;51.478;5.710;2023-04-10T02:18:13;15.32;;;10.98;;
45338;SDS011;31071;51.478;5.710;2023-04-10T02:20:40;14.13;;;10.25;;
45338;SDS011;31071;51.478;5.710;2023-04-10T02:23:06;14.63;;;9.93;;
45338;SDS011;31071;51.478;5.710;2023-04-10T02:25:32;15.15;;;10.13;;
45338;SDS011;31071;51.478;5.710;2023-04-10T02:28:05;16.13;;;11.15;;
45338;SDS011;31071;51.478;5.710;2023-04-10T02:30:31;17.25;;;11.25;;
45338;SDS011;31071;51.478;5.710;2023-04-10T02:32:57;15.27;;;10.50;;
45338;SDS011;31071;51.478;5.710;2023-04-10T02:35:23;14.82;;;9.63;;
45338;SDS011;31071;51.478;5.710;2023-04-10T02:37:48;17.23;;;10.20;;
45338;SDS011;31071;51.478;5.710;2023-04-10T02:40:14;15.93;;;10.50;;
45338;SDS011;31071;51.478;5.710;2023-04-10T02:42:40;14.30;;;10.20;;
45338;SDS011;31071;51.478;5.710;2023-04-10T02:45:06;15.73;;;9.90;;
45338;SDS011;31071;51.478;5.710;2023-04-10T02:47:32;14.48;;;10.13;;
45338;SDS011;31071;51.478;5.710;2023-04-10T02:49:58;14.90;;;10.25;;
45338;SDS011;31071;51.478;5.710;2023-04-10T02:52:23;18.08;;;9.95;;
45338;SDS011;31071;51.478;5.710;2023-04-10T02:54:49;14.85;;;10.27;;
45338;SDS011;31071;51.478;5.710;2023-04-10T02:57:15;14.90;;;10.05;;
45338;SDS011;31071;51.478;5.710;2023-04-10T02:59:41;13.52;;;9.70;;
45338;SDS011;31071;51.478;5.710;2023-04-10T03:02:07;13.73;;;9.88;;
45338;SDS011;31071;51.478;5.710;2023-04-10T03:04:32;14.77;;;10.27;;
45338;SDS011;31071;51.478;5.710;2023-04-10T03:06:58;13.30;;;9.48;;
45338;SDS011;31071;51.478;5.710;2023-04-10T03:09:24;13.40;;;9.20;;
45338;SDS011;31071;51.478;5.710;2023-04-10T03:11:50;16.70;;;9.38;;
45338;SDS011;31071;51.478;5.710;2023-04-10T03:14:15;16.50;;;9.65;;
45338;SDS011;31071;51.478;5.710;2023-04-10T03:16:41;13.68;;;9.63;;
45338;SDS011;31071;51.478;5.710;2023-04-10T03:19:07;14.05;;;9.27;;
45338;SDS011;31071;51.478;5.710;2023-04-10T03:21:33;14.55;;;10.15;;
45338;SDS011;31071;51.478;5.710;2023-04-10T03:23:58;13.20;;;9.02;;
45338;SDS011;31071;51.478;5.710;2023-04-10T03:26:24;12.40;;;9.38;;
45338;SDS011;31071;51.478;5.710;2023-04-10T03:28:50;14.55;;;9.57;;
45338;SDS011;31071;51.478;5.710;2023-04-10T03:31:16;12.85;;;8.93;;
45338;SDS011;31071;51.478;5.710;2023-04-10T03:33:41;12.93;;;9.55;;
45338;SDS011;31071;51.478;5.710;2023-04-10T03:36:07;15.93;;;9.52;;
45338;SDS011;31071;51.478;5.710;2023-04-10T03:38:33;13.50;;;8.70;;
45338;SDS011;31071;51.478;5.710;2023-04-10T03:40:58;13.23;;;9.30;;
45338;SDS011;31071;51.478;5.710;2023-04-10T03:43:24;13.10;;;9.30;;
45338;SDS011;31071;51.478;5.710;2023-04-10T03:45:50;12.85;;;9.25;;
45338;SDS011;31071;51.478;5.710;2023-04-10T03:48:15;16.00;;;9.50;;
45338;SDS011;31071;51.478;5.710;2023-04-10T03:50:41;15.52;;;10.30;;
45338;SDS011;31071;51.478;5.710;2023-04-10T03:53:07;14.68;;;9.80;;
45338;SDS011;31071;51.478;5.710;2023-04-10T03:55:33;13.20;;;9.20;;
45338;SDS011;31071;51.478;5.710;2023-04-10T03:57:59;12.43;;;9.35;;
45338;SDS011;31071;51.478;5.710;2023-04-10T04:00:25;13.35;;;8.57;;
45338;SDS011;31071;51.478;5.710;2023-04-10T04:02:51;13.95;;;9.43;;
45338;SDS011;31071;51.478;5.710;2023-04-10T04:05:18;13.48;;;9.73;;
45338;SDS011;31071;51.478;5.710;2023-04-10T04:07:43;16.25;;;9.90;;
45338;SDS011;31071;51.478;5.710;2023-04-10T04:10:09;16.80;;;10.43;;
45338;SDS011;31071;51.478;5.710;2023-04-10T04:12:35;15.30;;;9.52;;
45338;SDS011;31071;51.478;5.710;2023-04-10T04:15:00;14.13;;;9.90;;
45338;SDS011;31071;51.478;5.710;2023-04-10T04:17:26;14.77;;;9.55;;
45338;SDS011;31071;51.478;5.710;2023-04-10T04:19:51;14.10;;;10.40;;
45338;SDS011;31071;51.478;5.710;2023-04-10T04:22:17;13.80;;;9.60;;
45338;SDS011;31071;51.478;5.710;2023-04-10T04:24:44;12.05;;;9.35;;
45338;SDS011;31071;51.478;5.710;2023-04-10T04:27:10;16.45;;;10.38;;
45338;SDS011;31071;51.478;5.710;2023-04-10T04:29:35;12.68;;;9.52;;
45338;SDS011;31071;51.478;5.710;2023-04-10T04:32:01;14.75;;;10.57;;
45338;SDS011;31071;51.478;5.710;2023-04-10T04:34:26;15.10;;;10.68;;
45338;SDS011;31071;51.478;5.710;2023-04-10T04:36:52;15.55;;;10.82;;
45338;SDS011;31071;51.478;5.710;2023-04-10T04:39:17;12.77;;;9.80;;
45338;SDS011;31071;51.478;5.710;2023-04-10T04:41:43;13.88;;;9.90;;
45338;SDS011;31071;51.478;5.710;2023-04-10T04:44:08;12.73;;;9.52;;
45338;SDS011;31071;51.478;5.710;2023-04-10T04:46:34;14.63;;;9.57;;
45338;SDS011;31071;51.478;5.710;2023-04-10T04:48:59;16.10;;;9.98;;
45338;SDS011;31071;51.478;5.710;2023-04-10T04:51:25;15.35;;;9.35;;
45338;SDS011;31071;51.478;5.710;2023-04-10T04:53:51;15.20;;;9.50;;
45338;SDS011;31071;51.478;5.710;2023-04-10T04:56:17;15.95;;;9.60;;
45338;SDS011;31071;51.478;5.710;2023-04-10T04:58:42;16.85;;;9.60;;
45338;SDS011;31071;51.478;5.710;2023-04-10T05:01:08;15.63;;;9.75;;
45338;SDS011;31071;51.478;5.710;2023-04-10T05:03:33;14.85;;;9.80;;
45338;SDS011;31071;51.478;5.710;2023-04-10T05:05:59;12.93;;;9.15;;
45338;SDS011;31071;51.478;5.710;2023-04-10T05:08:24;13.35;;;9.80;;
45338;SDS011;31071;51.478;5.710;2023-04-10T05:10:50;15.55;;;10.32;;
45338;SDS011;31071;51.478;5.710;2023-04-10T05:13:16;12.68;;;9.10;;
45338;SDS011;31071;51.478;5.710;2023-04-10T05:15:44;13.05;;;9.00;;
45338;SDS011;31071;51.478;5.710;2023-04-10T05:18:10;12.60;;;9.35;;
45338;SDS011;31071;51.478;5.710;2023-04-10T05:20:37;15.27;;;9.98;;
45338;SDS011;31071;51.478;5.710;2023-04-10T05:23:03;15.05;;;9.85;;
45338;SDS011;31071;51.478;5.710;2023-04-10T05:25:28;13.63;;;9.55;;
45338;SDS011;31071;51.478;5.710;2023-04-10T05:27:54;13.65;;;9.77;;
45338;SDS011;31071;51.478;5.710;2023-04-10T05:30:20;15.93;;;9.32;;
45338;SDS011;31071;51.478;5.710;2023-04-10T05:32:45;14.65;;;9.45;;
45338;SDS011;31071;51.478;5.710;2023-04-10T05:35:11;14.90;;;9.95;;
45338;SDS011;31071;51.478;5.710;2023-04-10T05:37:36;13.65;;;9.80;;
45338;SDS011;31071;51.478;5.710;2023-04-10T05:40:02;29.33;;;12.38;;
45338;SDS011;31071;51.478;5.710;2023-04-10T05:42:28;13.88;;;9.52;;
45338;SDS011;31071;51.478;5.710;2023-04-10T05:44:54;14.15;;;9.38;;
45338;SDS011;31071;51.478;5.710;2023-04-10T05:47:20;13.75;;;9.98;;
45338;SDS011;31071;51.478;5.710;2023-04-10T05:49:45;15.93;;;9.77;;
45338;SDS011;31071;51.478;5.710;2023-04-10T05:52:11;14.45;;;9.93;;
45338;SDS011;31071;51.478;5.710;2023-04-10T05:54:36;15.52;;;10.30;;
45338;SDS011;31071;51.478;5.710;2023-04-10T05:57:02;12.23;;;9.60;;
45338;SDS011;31071;51.478;5.710;2023-04-10T05:59:27;13.82;;;10.00;;
45338;SDS011;31071;51.478;5.710;2023-04-10T06:01:53;12.80;;;9.32;;
45338;SDS011;31071;51.478;5.710;2023-04-10T06:04:18;12.98;;;9.80;;
45338;SDS011;31071;51.478;5.710;2023-04-10T06:06:45;13.15;;;9.45;;
45338;SDS011;31071;51.478;5.710;2023-04-10T06:09:10;15.55;;;10.98;;
45338;SDS011;31071;51.478;5.710;2023-04-10T06:11:36;15.10;;;10.30;;
45338;SDS011;31071;51.478;5.710;2023-04-10T06:14:02;16.90;;;10.73;;
45338;SDS011;31071;51.478;5.710;2023-04-10T06:16:27;15.15;;;10.15;;
45338;SDS011;31071;51.478;5.710;2023-04-10T06:18:53;13.48;;;9.77;;
45338;SDS011;31071;51.478;5.710;2023-04-10T06:21:18;12.65;;;9.50;;
45338;SDS011;31071;51.478;5.710;2023-04-10T06:23:44;14.40;;;9.77;;
45338;SDS011;31071;51.478;5.710;2023-04-10T06:26:10;16.13;;;11.05;;
45338;SDS011;31071;51.478;5.710;2023-04-10T06:28:36;13.15;;;10.07;;
45338;SDS011;31071;51.478;5.710;2023-04-10T06:31:01;13.73;;;10.32;;
45338;SDS011;31071;51.478;5.710;2023-04-10T06:33:28;15.18;;;10.48;;
45338;SDS011;31071;51.478;5.710;2023-04-10T06:35:54;14.75;;;10.77;;
45338;SDS011;31071;51.478;5.710;2023-04-10T06:38:19;16.52;;;11.38;;
45338;SDS011;31071;51.478;5.710;2023-04-10T06:40:45;13.80;;;10.23;;
45338;SDS011;31071;51.478;5.710;2023-04-10T06:43:11;15.73;;;11.20;;
45338;SDS011;31071;51.478;5.710;2023-04-10T06:45:36;14.90;;;10.60;;
45338;SDS011;31071;51.478;5.710;2023-04-10T06:48:02;17.13;;;10.93;;
45338;SDS011;31071;51.478;5.710;2023-04-10T06:50:28;14.35;;;10.80;;
45338;SDS011;31071;51.478;5.710;2023-04-10T06:52:53;14.80;;;11.00;;
45338;SDS011;31071;51.478;5.710;2023-04-10T06:55:20;14.27;;;10.27;;
45338;SDS011;31071;51.478;5.710;2023-04-10T06:57:45;13.63;;;9.63;;
45338;SDS011;31071;51.478;5.710;2023-04-10T07:00:11;11.40;;;9.27;;
45338;SDS011;31071;51.478;5.710;2023-04-10T07:02:37;12.20;;;9.40;;
45338;SDS011;31071;51.478;5.710;2023-04-10T07:05:03;12.77;;;9.90;;
45338;SDS011;31071;51.478;5.710;2023-04-10T07:07:28;13.95;;;9.95;;
45338;SDS011;31071;51.478;5.710;2023-04-10T07:09:55;12.93;;;9.38;;
45338;SDS011;31071;51.478;5.710;2023-04-10T07:12:21;15.20;;;9.85;;
45338;SDS011;31071;51.478;5.710;2023-04-10T07:14:47;16.15;;;9.77;;
45338;SDS011;31071;51.478;5.710;2023-04-10T07:17:13;13.30;;;9.95;;
45338;SDS011;31071;51.478;5.710;2023-04-10T07:19:38;13.65;;;9.55;;
45338;SDS011;31071;51.478;5.710;2023-04-10T07:22:04;16.10;;;9.75;;
45338;SDS011;31071;51.478;5.710;2023-04-10T07:24:31;12.85;;;9.52;;
45338;SDS011;31071;51.478;5.710;2023-04-10T07:26:56;13.63;;;9.00;;
45338;SDS011;31071;51.478;5.710;2023-04-10T07:29:22;12.70;;;9.65;;
45338;SDS011;31071;51.478;5.710;2023-04-10T07:31:48;13.70;;;9.40;;
45338;SDS011;31071;51.478;5.710;2023-04-10T07:34:13;16.00;;;9.02;;
45338;SDS011;31071;51.478;5.710;2023-04-10T07:36:39;15.55;;;9.95;;
45338;SDS011;31071;51.478;5.710;2023-04-10T07:39:04;15.13;;;8.98;;
45338;SDS011;31071;51.478;5.710;2023-04-10T07:41:30;12.25;;;8.75;;
45338;SDS011;31071;51.478;5.710;2023-04-10T07:43:56;12.32;;;9.20;;
45338;SDS011;31071;51.478;5.710;2023-04-10T07:46:21;13.95;;;9.15;;
45338;SDS011;31071;51.478;5.710;2023-04-10T07:48:47;11.65;;;8.68;;
45338;SDS011;31071;51.478;5.710;2023-04-10T07:51:13;12.40;;;9.45;;
45338;SDS011;31071;51.478;5.710;2023-04-10T07:53:39;13.02;;;9.40;;
45338;SDS011;31071;51.478;5.710;2023-04-10T07:56:05;10.45;;;8.40;;
45338;SDS011;31071;51.478;5.710;2023-04-10T07:58:31;12.20;;;8.98;;
45338;SDS011;31071;51.478;5.710;2023-04-10T08:00:57;11.07;;;8.43;;
45338;SDS011;31071;51.478;5.710;2023-04-10T08:03:22;10.85;;;8.27;;
45338;SDS011;31071;51.478;5.710;2023-04-10T08:05:48;10.63;;;8.77;;
45338;SDS011;31071;51.478;5.710;2023-04-10T08:08:14;13.68;;;8.50;;
45338;SDS011;31071;51.478;5.710;2023-04-10T08:10:40;10.00;;;7.57;;
45338;SDS011;31071;51.478;5.710;2023-04-10T08:13:06;11.13;;;8.60;;
45338;SDS011;31071;51.478;5.710;2023-04-10T08:15:31;11.07;;;8.40;;
45338;SDS011;31071;51.478;5.710;2023-04-10T08:17:57;10.88;;;8.30;;
45338;SDS011;31071;51.478;5.710;2023-04-10T08:20:22;12.23;;;8.38;;
45338;SDS011;31071;51.478;5.710;2023-04-10T08:22:48;10.65;;;8.45;;
45338;SDS011;31071;51.478;5.710;2023-04-10T08:25:14;10.98;;;7.63;;
45338;SDS011;31071;51.478;5.710;2023-04-10T08:27:41;11.65;;;8.27;;
45338;SDS011;31071;51.478;5.710;2023-04-10T08:30:06;10.70;;;8.30;;
45338;SDS011;31071;51.478;5.710;2023-04-10T08:32:32;10.48;;;8.10;;
45338;SDS011;31071;51.478;5.710;2023-04-10T08:34:58;11.88;;;8.23;;
45338;SDS011;31071;51.478;5.710;2023-04-10T08:37:24;11.90;;;8.48;;
45338;SDS011;31071;51.478;5.710;2023-04-10T08:39:50;9.73;;;7.72;;
45338;SDS011;31071;51.478;5.710;2023-04-10T08:42:16;11.38;;;8.30;;
45338;SDS011;31071;51.478;5.710;2023-04-10T08:44:42;10.80;;;8.55;;
45338;SDS011;31071;51.478;5.710;2023-04-10T08:47:07;11.57;;;8.20;;
45338;SDS011;31071;51.478;5.710;2023-04-10T08:49:45;10.35;;;8.23;;
45338;SDS011;31071;51.478;5.710;2023-04-10T08:52:17;11.50;;;8.10;;
45338;SDS011;31071;51.478;5.710;2023-04-10T08:54:47;10.65;;;7.78;;
45338;SDS011;31071;51.478;5.710;2023-04-10T08:57:15;9.73;;;8.00;;
45338;SDS011;31071;51.478;5.710;2023-04-10T08:59:45;9.73;;;8.02;;
45338;SDS011;31071;51.478;5.710;2023-04-10T09:02:11;10.48;;;8.02;;
45338;SDS011;31071;51.478;5.710;2023-04-10T09:04:36;10.20;;;8.32;;
45338;SDS011;31071;51.478;5.710;2023-04-10T09:07:02;9.05;;;7.47;;
45338;SDS011;31071;51.478;5.710;2023-04-10T09:09:27;10.18;;;8.00;;
45338;SDS011;31071;51.478;5.710;2023-04-10T09:11:57;12.35;;;8.68;;
45338;SDS011;31071;51.478;5.710;2023-04-10T09:14:34;9.35;;;7.60;;
45338;SDS011;31071;51.478;5.710;2023-04-10T09:19:56;13.60;;;8.50;;
45338;SDS011;31071;51.478;5.710;2023-04-10T09:22:28;8.82;;;7.68;;
45338;SDS011;31071;51.478;5.710;2023-04-10T09:24:57;10.73;;;7.70;;
45338;SDS011;31071;51.478;5.710;2023-04-10T09:27:34;11.00;;;8.25;;
45338;SDS011;31071;51.478;5.710;2023-04-10T09:30:01;12.32;;;8.10;;
45338;SDS011;31071;51.478;5.710;2023-04-10T09:32:40;9.82;;;8.15;;
45338;SDS011;31071;51.478;5.710;2023-04-10T09:35:11;9.55;;;8.20;;
45338;SDS011;31071;51.478;5.710;2023-04-10T09:37:38;9.60;;;7.78;;
45338;SDS011;31071;51.478;5.710;2023-04-10T09:40:05;10.75;;;7.80;;
45338;SDS011;31071;51.478;5.710;2023-04-10T09:42:43;10.85;;;8.50;;
45338;SDS011;31071;51.478;5.710;2023-04-10T09:45:08;11.88;;;8.40;;
45338;SDS011;31071;51.478;5.710;2023-04-10T09:47:34;10.60;;;8.38;;
45338;SDS011;31071;51.478;5.710;2023-04-10T09:50:00;9.85;;;8.55;;
45338;SDS011;31071;51.478;5.710;2023-04-10T09:52:35;10.02;;;8.70;;
45338;SDS011;31071;51.478;5.710;2023-04-10T09:55:05;10.45;;;7.90;;
45338;SDS011;31071;51.478;5.710;2023-04-10T09:57:32;10.23;;;8.15;;
45338;SDS011;31071;51.478;5.710;2023-04-10T10:00:00;10.98;;;8.77;;
45338;SDS011;31071;51.478;5.710;2023-04-10T10:02:28;9.65;;;8.18;;
45338;SDS011;31071;51.478;5.710;2023-04-10T10:04:55;12.50;;;8.50;;
45338;SDS011;31071;51.478;5.710;2023-04-10T10:07:24;10.48;;;8.93;;
45338;SDS011;31071;51.478;5.710;2023-04-10T10:09:51;11.73;;;10.15;;
45338;SDS011;31071;51.478;5.710;2023-04-10T10:15:13;10.80;;;8.38;;
45338;SDS011;31071;51.478;5.710;2023-04-10T10:18:02;11.95;;;8.50;;
45338;SDS011;31071;51.478;5.710;2023-04-10T10:20:44;9.05;;;8.13;;
45338;SDS011;31071;51.478;5.710;2023-04-10T10:23:10;9.80;;;8.55;;
45338;SDS011;31071;51.478;5.710;2023-04-10T10:25:37;22.55;;;16.35;;
45338;SDS011;31071;51.478;5.710;2023-04-10T10:28:05;10.75;;;7.32;;
45338;SDS011;31071;51.478;5.710;2023-04-10T10:30:33;8.25;;;6.93;;
45338;SDS011;31071;51.478;5.710;2023-04-10T10:33:00;11.35;;;6.88;;
45338;SDS011;31071;51.478;5.710;2023-04-10T10:35:29;7.75;;;6.95;;
45338;SDS011;31071;51.478;5.710;2023-04-10T10:37:57;11.30;;;6.63;;
45338;SDS011;31071;51.478;5.710;2023-04-10T10:40:30;9.85;;;7.25;;
45338;SDS011;31071;51.478;5.710;2023-04-10T10:43:24;7.90;;;6.57;;
45338;SDS011;31071;51.478;5.710;2023-04-10T10:46:03;9.52;;;6.57;;
45338;SDS011;31071;51.478;5.710;2023-04-10T10:48:33;8.65;;;6.95;;
45338;SDS011;31071;51.478;5.710;2023-04-10T10:50:59;7.47;;;6.57;;
45338;SDS011;31071;51.478;5.710;2023-04-10T10:53:36;7.10;;;6.22;;
45338;SDS011;31071;51.478;5.710;2023-04-10T10:59:01;6.85;;;6.15;;
45338;SDS011;31071;51.478;5.710;2023-04-10T11:01:27;7.18;;;6.40;;
45338;SDS011;31071;51.478;5.710;2023-04-10T11:03:53;7.05;;;6.28;;
45338;SDS011;31071;51.478;5.710;2023-04-10T11:06:19;7.82;;;6.35;;
45338;SDS011;31071;51.478;5.710;2023-04-10T11:08:46;6.90;;;6.20;;
45338;SDS011;31071;51.478;5.710;2023-04-10T11:11:16;11.60;;;6.05;;
45338;SDS011;31071;51.478;5.710;2023-04-10T11:16:16;7.35;;;6.38;;
45338;SDS011;31071;51.478;5.710;2023-04-10T11:21:17;6.07;;;5.47;;
45338;SDS011;31071;51.478;5.710;2023-04-10T11:31:45;6.32;;;5.63;;
45338;SDS011;31071;51.478;5.710;2023-04-10T11:34:23;6.60;;;5.45;;
45338;SDS011;31071;51.478;5.710;2023-04-10T11:36:51;8.25;;;5.60;;
45338;SDS011;31071;51.478;5.710;2023-04-10T11:39:17;6.57;;;5.97;;
45338;SDS011;31071;51.478;5.710;2023-04-10T11:41:45;6.20;;;5.60;;
45338;SDS011;31071;51.478;5.710;2023-04-10T11:44:13;6.10;;;5.40;;
45338;SDS011;31071;51.478;5.710;2023-04-10T11:47:11;7.38;;;5.15;;
45338;SDS011;31071;51.478;5.710;2023-04-10T11:49:37;6.93;;;5.53;;
45338;SDS011;31071;51.478;5.710;2023-04-10T11:52:02;5.63;;;5.05;;
45338;SDS011;31071;51.478;5.710;2023-04-10T11:54:28;5.63;;;5.13;;
45338;SDS011;31071;51.478;5.710;2023-04-10T11:59:36;6.05;;;4.75;;
45338;SDS011;31071;51.478;5.710;2023-04-10T12:02:06;5.88;;;4.90;;
45338;SDS011;31071;51.478;5.710;2023-04-10T12:04:33;5.10;;;4.60;;
45338;SDS011;31071;51.478;5.710;2023-04-10T12:06:59;9.60;;;5.00;;
45338;SDS011;31071;51.478;5.710;2023-04-10T12:09:25;5.78;;;4.55;;
45338;SDS011;31071;51.478;5.710;2023-04-10T12:11:54;5.80;;;4.40;;
45338;SDS011;31071;51.478;5.710;2023-04-10T12:14:27;4.95;;;4.45;;
45338;SDS011;31071;51.478;5.710;2023-04-10T12:17:04;5.50;;;4.60;;
45338;SDS011;31071;51.478;5.710;2023-04-10T12:19:32;4.30;;;3.90;;
45338;SDS011;31071;51.478;5.710;2023-04-10T12:21:58;4.35;;;3.60;;
45338;SDS011;31071;51.478;5.710;2023-04-10T12:27:19;5.97;;;4.05;;
45338;SDS011;31071;51.478;5.710;2023-04-10T12:29:46;4.38;;;3.97;;
45338;SDS011;31071;51.478;5.710;2023-04-10T12:32:14;4.20;;;3.75;;
45338;SDS011;31071;51.478;5.710;2023-04-10T12:34:40;4.43;;;4.03;;
45338;SDS011;31071;51.478;5.710;2023-04-10T12:37:06;5.80;;;3.90;;
45338;SDS011;31071;51.478;5.710;2023-04-10T12:39:33;5.97;;;4.15;;
45338;SDS011;31071;51.478;5.710;2023-04-10T12:42:18;5.70;;;4.20;;
45338;SDS011;31071;51.478;5.710;2023-04-10T12:44:58;6.43;;;4.10;;
45338;SDS011;31071;51.478;5.710;2023-04-10T12:47:25;4.30;;;3.83;;
45338;SDS011;31071;51.478;5.710;2023-04-10T12:50:14;4.43;;;3.60;;
45338;SDS011;31071;51.478;5.710;2023-04-10T12:52:43;6.38;;;3.95;;
45338;SDS011;31071;51.478;5.710;2023-04-10T12:55:10;3.97;;;3.58;;
45338;SDS011;31071;51.478;5.710;2023-04-10T12:57:41;7.57;;;4.35;;
45338;SDS011;31071;51.478;5.710;2023-04-10T13:00:09;5.13;;;3.92;;
45338;SDS011;31071;51.478;5.710;2023-04-10T13:02:36;5.25;;;4.20;;
45338;SDS011;31071;51.478;5.710;2023-04-10T13:05:03;4.30;;;3.90;;
45338;SDS011;31071;51.478;5.710;2023-04-10T13:07:29;3.60;;;3.35;;
45338;SDS011;31071;51.478;5.710;2023-04-10T13:09:56;4.57;;;3.80;;
45338;SDS011;31071;51.478;5.710;2023-04-10T13:12:22;5.20;;;3.85;;
45338;SDS011;31071;51.478;5.710;2023-04-10T13:14:48;4.10;;;3.70;;
45338;SDS011;31071;51.478;5.710;2023-04-10T13:17:13;6.50;;;3.30;;
45338;SDS011;31071;51.478;5.710;2023-04-10T13:19:40;6.35;;;3.75;;
45338;SDS011;31071;51.478;5.710;2023-04-10T13:22:05;4.35;;;3.60;;
45338;SDS011;31071;51.478;5.710;2023-04-10T13:24:31;4.00;;;3.60;;
45338;SDS011;31071;51.478;5.710;2023-04-10T13:26:56;4.28;;;3.40;;
45338;SDS011;31071;51.478;5.710;2023-04-10T13:29:22;5.03;;;3.45;;
45338;SDS011;31071;51.478;5.710;2023-04-10T13:31:48;5.82;;;3.38;;
45338;SDS011;31071;51.478;5.710;2023-04-10T13:34:14;5.70;;;3.38;;
45338;SDS011;31071;51.478;5.710;2023-04-10T13:36:40;3.65;;;3.30;;
45338;SDS011;31071;51.478;5.710;2023-04-10T13:39:06;4.57;;;3.65;;
45338;SDS011;31071;51.478;5.710;2023-04-10T13:41:31;4.50;;;3.22;;
45338;SDS011;31071;51.478;5.710;2023-04-10T13:43:57;3.60;;;3.30;;
45338;SDS011;31071;51.478;5.710;2023-04-10T13:46:22;4.30;;;3.10;;
45338;SDS011;31071;51.478;5.710;2023-04-10T13:48:48;4.63;;;3.85;;
45338;SDS011;31071;51.478;5.710;2023-04-10T13:51:13;3.97;;;3.50;;
45338;SDS011;31071;51.478;5.710;2023-04-10T13:53:39;4.65;;;3.63;;
45338;SDS011;31071;51.478;5.710;2023-04-10T13:56:05;6.15;;;3.28;;
45338;SDS011;31071;51.478;5.710;2023-04-10T13:58:31;5.07;;;3.60;;
45338;SDS011;31071;51.478;5.710;2023-04-10T14:00:58;4.38;;;3.45;;
45338;SDS011;31071;51.478;5.710;2023-04-10T14:03:24;4.38;;;2.85;;
45338;SDS011;31071;51.478;5.710;2023-04-10T14:05:49;4.53;;;3.03;;
45338;SDS011;31071;51.478;5.710;2023-04-10T14:08:16;3.15;;;2.85;;
45338;SDS011;31071;51.478;5.710;2023-04-10T14:10:42;4.53;;;3.22;;
45338;SDS011;31071;51.478;5.710;2023-04-10T14:13:08;3.85;;;3.50;;
45338;SDS011;31071;51.478;5.710;2023-04-10T14:15:35;5.20;;;3.03;;
45338;SDS011;31071;51.478;5.710;2023-04-10T14:18:01;3.38;;;2.90;;
45338;SDS011;31071;51.478;5.710;2023-04-10T14:20:27;4.13;;;3.67;;
45338;SDS011;31071;51.478;5.710;2023-04-10T14:22:52;4.18;;;3.00;;
45338;SDS011;31071;51.478;5.710;2023-04-10T14:25:18;6.10;;;3.20;;
45338;SDS011;31071;51.478;5.710;2023-04-10T14:27:43;8.18;;;3.80;;
45338;SDS011;31071;51.478;5.710;2023-04-10T14:30:09;3.72;;;3.40;;
45338;SDS011;31071;51.478;5.710;2023-04-10T14:32:37;6.10;;;3.38;;
45338;SDS011;31071;51.478;5.710;2023-04-10T14:35:02;7.53;;;3.38;;
45338;SDS011;31071;51.478;5.710;2023-04-10T14:37:28;4.57;;;3.20;;
45338;SDS011;31071;51.478;5.710;2023-04-10T14:39:54;3.15;;;2.85;;
45338;SDS011;31071;51.478;5.710;2023-04-10T14:42:20;6.63;;;3.38;;
45338;SDS011;31071;51.478;5.710;2023-04-10T14:44:47;3.47;;;3.17;;
45338;SDS011;31071;51.478;5.710;2023-04-10T14:47:13;3.50;;;3.20;;
45338;SDS011;31071;51.478;5.710;2023-04-10T14:49:39;4.45;;;3.15;;
45338;SDS011;31071;51.478;5.710;2023-04-10T14:52:05;4.78;;;3.20;;
45338;SDS011;31071;51.478;5.710;2023-04-10T14:54:30;4.82;;;3.20;;
45338;SDS011;31071;51.478;5.710;2023-04-10T14:56:56;3.53;;;3.22;;
45338;SDS011;31071;51.478;5.710;2023-04-10T14:59:22;3.20;;;2.75;;
45338;SDS011;31071;51.478;5.710;2023-04-10T15:01:47;4.03;;;3.38;;
45338;SDS011;31071;51.478;5.710;2023-04-10T15:04:13;3.83;;;3.20;;
45338;SDS011;31071;51.478;5.710;2023-04-10T15:06:38;4.30;;;3.90;;
45338;SDS011;31071;51.478;5.710;2023-04-10T15:09:04;4.88;;;3.40;;
45338;SDS011;31071;51.478;5.710;2023-04-10T15:11:30;4.47;;;3.22;;